Latest Weather Observations for Braidwood

IDN60801

Issued at 5:05 pm EST Saturday 23 August 2014 (issued every 30 minutes, with the page automatically refreshed every 10 minutes)

About weather observations | Map of weather stations | Latest weather observations for NSW | Other Formats
Station Details ID: 069132 Name: BRAIDWOOD RACECOURSE AWS Lat: -35.43 Lon: 149.78 Height: 665.2 m
Data from the previous 72 hours. | See also: Recent months at Braidwood
Date/Time
EST
Temp
°C
App
Temp
°C
Dew
Point
Rel
Hum
%
Delta-T
°C
Wind Press
QNH
hPa
Press
MSL
hPa
Rain
since 9 am
mm
Dir
 
Spd
km/h
Gust
km/h
Spd
kts
Gust
kts
23/05:00pm 10.3 - - - - ESE 13 17 7 9 1029.5 1030.5 0.6
23/04:30pm 10.6 - - - - ESE 11 17 6 9 1029.3 - 0.6
23/04:00pm 10.9 - - - - ESE 13 19 7 10 1029.2 1030.1 0.6
23/03:30pm 11.2 - - - - ESE 9 13 5 7 1029.0 - 0.6
23/03:00pm 11.6 - - - - ESE 13 17 7 9 1029.0 1029.9 0.2
23/02:30pm 11.8 - - - - E 15 20 8 11 1029.0 - 0.0
23/02:00pm 12.9 - - - - CALM 0 0 0 0 1029.0 1029.9 0.0
23/01:30pm 12.8 - - - - E 11 19 6 10 1029.3 - 0.0
23/01:00pm 12.6 - - - - ESE 7 11 4 6 1029.5 1030.5 0.0
23/12:30pm 12.6 - - - - CALM 0 0 0 0 1030.1 - 0.0
23/12:00pm 12.4 - - - - CALM 0 0 0 0 1030.5 1031.4 0.0
23/11:30am 12.0 - - - - W 0 0 0 0 1031.0 - 0.0
23/11:00am 11.6 - - - - CALM 0 0 0 0 1031.4 1032.4 0.0
23/10:30am 10.9 - - - - E 6 9 3 5 1031.6 - 0.0
23/10:00am 10.7 - - - - SSE 2 7 1 4 1031.7 1032.7 0.0
23/09:30am 10.1 - - - - CALM 0 0 0 0 1032.0 - 0.0
23/09:00am 10.2 - - - - NNW 0 0 0 0 1032.1 1033.1 0.0
23/08:30am 9.0 - - - - CALM 0 0 0 0 1032.1 - 0.0
23/08:00am 8.2 - - - - CALM 0 0 0 0 1031.7 1032.7 0.0
23/07:30am 7.5 - - - - CALM 0 0 0 0 1031.5 - 0.0
23/07:00am 6.9 - - - - CALM 0 0 0 0 1031.2 1032.2 0.0
23/06:30am 6.5 - - - - CALM 0 0 0 0 1030.8 - 0.0
23/06:00am 7.0 - - - - ESE 0 0 0 0 1030.6 1031.5 0.0
23/05:30am 7.3 - - - - CALM 0 0 0 0 1030.5 - 0.0
23/05:00am 7.3 - - - - CALM 0 0 0 0 1030.4 1031.3 0.0
23/04:30am 7.2 - - - - CALM 0 0 0 0 1030.3 - 0.0
23/04:00am 7.2 - - - - CALM 0 0 0 0 1030.3 1031.2 0.0
23/03:30am 7.3 - - - - CALM 0 0 0 0 1030.3 - 0.0
23/03:00am 7.4 - - - - CALM 0 0 0 0 1030.4 1031.3 0.0
23/02:30am 7.3 - - - - CALM 0 0 0 0 1030.6 - 0.0
23/02:00am 7.6 - - - - S 6 9 3 5 1030.7 1031.6 0.0
23/01:30am 7.9 - - - - S 6 7 3 4 1030.9 - 0.0
23/01:00am 8.0 - - - - SSW 6 7 3 4 1031.2 1032.2 0.0
23/12:30am 7.8 - - - - S 6 7 3 4 1031.1 - 0.0
23/12:00am 7.9 - - - - S 7 9 4 5 1031.2 1032.2 0.0
 
Date/Time
EST
Temp
°C
App
Temp
°C
Dew
Point
Rel
Hum
%
Delta-T
°C
Wind Press
QNH
hPa
Press
MSL
hPa
Rain
since 9 am
mm
Dir
 
Spd
km/h
Gust
km/h
Spd
kts
Gust
kts
22/11:30pm 7.9 - - - - S 6 9 3 5 1031.3 - 0.0
22/11:00pm 7.9 - - - - S 7 11 4 6 1031.5 1032.5 0.0
22/10:30pm 8.0 - - - - SSE 2 4 1 2 1031.6 - 0.0
22/10:00pm 8.0 - - - - S 6 7 3 4 1031.9 1032.8 0.0
22/09:30pm 8.1 - - - - SSE 2 6 1 3 1032.0 - 0.0
22/09:00pm 8.2 - - - - S 4 6 2 3 1032.0 1032.9 0.0
22/08:30pm 8.3 - - - - SE 4 9 2 5 1031.7 - 0.0
22/08:00pm 8.4 - - - - SE 6 7 3 4 1031.5 1032.5 0.0
22/07:30pm 8.3 - - - - SE 6 9 3 5 1031.5 - 0.0
22/07:00pm 8.0 - - - - SSE 7 11 4 6 1031.4 1032.4 0.0
22/06:30pm 7.8 - - - - SE 9 17 5 9 1031.2 - 0.0
22/06:00pm 7.5 - - - - SSE 7 11 4 6 1030.8 1031.8 0.0
22/05:30pm 8.0 - - - - ESE 15 22 8 12 1030.7 - 0.0
22/05:00pm 9.2 - - - - SE 15 19 8 10 1030.4 1031.3 0.0
22/04:30pm 10.5 - - - - ESE 17 20 9 11 1029.9 - 0.0
22/04:00pm 10.8 - - - - ESE 19 24 10 13 1029.8 1030.8 0.0
22/03:30pm 11.7 - - - - ESE 17 20 9 11 1029.7 - 0.0
22/03:00pm 11.8 - - - - ESE 15 22 8 12 1029.9 1030.9 0.0
22/02:30pm 11.3 - - - - E 19 24 10 13 1030.0 - 0.0
22/02:00pm 12.0 - - - - ESE 15 19 8 10 1030.1 1031.1 0.0
22/01:30pm 13.6 - - - - SSW 2 9 1 5 1030.4 - 0.0
22/01:00pm 11.5 - - - - E 7 11 4 6 1030.8 1031.8 0.0
22/12:30pm 11.5 - - - - E 7 11 4 6 1031.2 - 0.0
22/12:00pm 10.9 - - - - ESE 9 13 5 7 1031.6 1032.6 0.0
22/11:30am 10.7 - - - - ESE 9 13 5 7 1032.2 - 0.0
22/11:00am 10.4 - - - - E 9 11 5 6 1032.5 1033.5 0.0
22/10:30am 10.1 - - - - E 9 13 5 7 1032.5 - 0.0
22/10:00am 9.1 - - - - ESE 6 9 3 5 1032.8 1033.8 0.0
22/09:30am 8.5 - - - - SE 9 13 5 7 1032.8 - 0.0
22/09:00am 8.0 - - - - SSE 6 7 3 4 1032.8 1033.8 2.0
22/08:30am 8.2 - - - - SSE 6 9 3 5 1032.6 - 2.0
22/08:00am 7.3 - - - - S 6 7 3 4 1032.4 1033.4 2.0
22/07:30am 6.9 - - - - S 4 9 2 5 1032.0 - 2.0
22/07:00am 6.0 - - - - CALM 0 0 0 0 1031.7 1032.7 2.0
22/06:30am 5.3 - - - - CALM 0 0 0 0 1031.3 - 1.8
22/06:00am 4.7 - - - - CALM 0 0 0 0 1031.2 1032.2 1.6
22/05:30am 3.6 - - - - CALM 0 0 0 0 1030.9 - 1.6
22/05:00am 4.5 - - - - CALM 0 0 0 0 1030.7 1031.6 1.6
22/04:30am 5.4 - - - - CALM 0 0 0 0 1030.7 - 1.6
22/04:00am 5.4 - - - - CALM 0 0 0 0 1030.6 1031.5 1.4
22/03:30am 4.3 - - - - CALM 0 0 0 0 1030.5 - 1.2
22/03:00am 4.3 - - - - CALM 0 0 0 0 1030.5 1031.4 1.2
22/02:30am 4.8 - - - - CALM 0 0 0 0 1030.6 - 1.2
22/02:00am 4.2 - - - - CALM 0 2 0 1 1030.9 1031.9 1.2
22/01:30am 5.6 - - - - SE 6 7 3 4 1031.0 - 1.2
22/01:00am 6.0 - - - - SSE 6 7 3 4 1031.1 1032.1 1.2
22/12:30am 5.3 - - - - SE 4 6 2 3 1031.2 - 1.2
22/12:00am 5.3 - - - - S 6 7 3 4 1031.2 1032.2 1.2
 
Date/Time
EST
Temp
°C
App
Temp
°C
Dew
Point
Rel
Hum
%
Delta-T
°C
Wind Press
QNH
hPa
Press
MSL
hPa
Rain
since 9 am
mm
Dir
 
Spd
km/h
Gust
km/h
Spd
kts
Gust
kts
21/11:30pm 5.3 - - - - SE 6 7 3 4 1031.4 - 1.2
21/11:00pm 6.6 - - - - SSE 6 7 3 4 1031.4 1032.4 1.2
21/10:30pm 6.7 - - - - SE 4 6 2 3 1031.2 - 1.2
21/10:00pm 6.3 - - - - CALM 0 0 0 0 1031.3 1032.3 1.2
21/09:30pm 5.8 - - - - CALM 0 0 0 0 1031.4 - 1.2
21/09:00pm 6.5 - - - - CALM 0 0 0 0 1031.3 1032.3 1.2
21/08:30pm 6.3 - - - - CALM 0 0 0 0 1031.1 - 1.2
21/08:00pm 5.2 - - - - CALM 0 0 0 0 1031.0 1032.0 1.0
21/07:30pm 5.3 - - - - SSE 4 6 2 3 1030.8 - 1.0
21/07:00pm 6.0 - - - - SE 2 7 1 4 1030.4 1031.3 1.0
21/06:30pm 6.8 - - - - SE 7 9 4 5 1030.1 - 1.0
21/06:00pm 7.7 - - - - SE 7 13 4 7 1029.8 1030.8 1.0
21/05:30pm 8.1 - - - - SE 7 17 4 9 1029.7 - 1.0
21/05:00pm 7.8 - - - - SE 9 13 5 7 1029.3 1030.2 1.0
21/04:30pm 8.4 - - - - ESE 15 20 8 11 1029.0 - 1.0
21/04:00pm 9.8 - - - - S 9 17 5 9 1028.5 1029.5 1.0
21/03:30pm 9.1 - - - - SE 11 19 6 10 1028.5 - 1.0
21/03:00pm 8.8 - - - - SE 9 15 5 8 1028.5 1029.5 1.0
21/02:30pm 10.1 - - - - SE 13 17 7 9 1028.5 - 0.2
21/02:00pm 9.4 - - - - SSE 13 19 7 10 1028.8 1029.7 0.2
21/01:30pm 8.6 - - - - S 15 22 8 12 1028.9 - 0.2
21/01:00pm 9.2 - - - - SSE 9 17 5 9 1029.1 1030.0 0.0
21/12:30pm 9.0 - - - - S 13 19 7 10 1029.5 - 0.0
21/12:00pm 8.5 - - - - S 17 20 9 11 1029.8 1030.8 0.0
21/11:30am 7.9 - - - - SSE 17 22 9 12 1030.0 - 0.0
21/11:00am 8.1 - - - - S 15 22 8 12 1030.3 1031.2 0.0
21/10:30am 8.4 - - - - S 17 22 9 12 1030.4 - 0.0
21/10:00am 7.7 - - - - SSE 13 17 7 9 1030.3 1031.2 0.0
21/09:30am 7.3 - - - - SSE 9 13 5 7 1030.1 - 0.0
21/09:00am 6.4 - - - - S 7 9 4 5 1030.0 1031.0 0.0
21/08:30am 5.7 - - - - SW 6 7 3 4 1029.9 - 0.0
21/08:00am 5.1 - - - - SW 6 9 3 5 1029.6 1030.6 0.0
21/07:30am 4.7 - - - - SW 6 9 3 5 1029.4 - 0.0
21/07:00am 4.2 - - - - SSW 6 9 3 5 1029.1 1030.0 0.0
21/06:30am 3.7 - - - - S 2 9 1 5 1028.8 - 0.0
21/06:00am 2.6 - - - - CALM 0 2 0 1 1028.4 1029.4 0.0
21/05:30am 1.4 - - - - SE 4 7 2 4 1028.2 - 0.0
21/05:00am 0.8 - - - - SSE 4 6 2 3 1028.1 1029.0 0.0
21/04:30am 1.1 - - - - SSE 6 7 3 4 1028.0 - 0.0
21/04:00am 0.6 - - - - SE 4 4 2 2 1027.8 1028.7 0.0
21/03:30am 2.7 - - - - SW 7 13 4 7 1027.7 - 0.0
21/03:00am 2.0 - - - - WSW 6 13 3 7 1027.6 1028.5 0.0
21/02:30am 2.0 - - - - SSW 4 7 2 4 1027.7 - 0.0
21/02:00am 0.4 - - - - SSW 4 6 2 3 1027.8 1028.7 0.0
21/01:30am 0.2 - - - - CALM 0 0 0 0 1027.9 - 0.0
21/01:00am 1.1 - - - - CALM 0 0 0 0 1027.9 1028.8 0.0
21/12:30am 1.5 - - - - CALM 0 0 0 0 1027.9 - 0.0
21/12:00am 1.7 - - - - CALM 0 0 0 0 1027.9 1028.8 0.0
 
Date/Time
EST
Temp
°C
App
Temp
°C
Dew
Point
Rel
Hum
%
Delta-T
°C
Wind Press
QNH
hPa
Press
MSL
hPa
Rain
since 9 am
mm
Dir
 
Spd
km/h
Gust
km/h
Spd
kts
Gust
kts
20/11:30pm 1.9 - - - - CALM 0 0 0 0 1027.9 - 0.0
20/11:00pm 2.2 - - - - SSE 2 4 1 2 1027.9 1028.8 0.0
20/10:30pm 2.8 - - - - CALM 0 0 0 0 1028.0 - 0.0
20/10:00pm 3.5 - - - - CALM 0 0 0 0 1028.0 1028.9 0.0
20/09:30pm 3.6 - - - - CALM 0 0 0 0 1028.0 - 0.0
20/09:00pm 3.3 - - - - CALM 0 0 0 0 1027.8 1028.7 0.0
20/08:30pm 3.2 - - - - CALM 0 4 0 2 1027.5 - 0.0
20/08:00pm 3.2 - - - - S 6 6 3 3 1027.4 1028.3 0.0
20/07:30pm 4.0 - - - - SSE 6 7 3 4 1027.2 - 0.0
20/07:00pm 4.7 - - - - SSE 7 9 4 5 1026.7 1027.6 0.0
20/06:30pm 5.7 - - - - SE 9 13 5 7 1026.4 - 0.0
20/06:00pm 6.3 - - - - ESE 11 15 6 8 1026.1 1027.0 0.0
20/05:30pm 7.5 - - - - ESE 15 19 8 10 1025.6 - 0.0

Other Formats:

Comma delimited format used in spreadsheet applications
http://www.bom.gov.au/fwo/IDN60801/IDN60801.94927.axf

JavaScript Object Notation format (JSON) in row-major order
http://www.bom.gov.au/fwo/IDN60801/IDN60801.94927.json